York Harbor, Maine
Current Conditions -  °F | °C
As of 6:58 PM on Friday 21 Nov 2014 (Local Time) from KPSM Reporting Station
Clear Clear  
Wind Chill: 17°   Ceiling: Unl
Heat Index: 27°   Visibility: 10mi
Dew Point:   Wind: 10mph
Humidity: 38%   Direction: 280°W
Pressure: 30.3"   Gusts: NA
Location:  43.14°N, 70.65°W
Report Text: KPSM 212358Z 28009KT 10SM CLR M03/M15 A3030 RMK AO2A SLP265 T10291155 10006 21029 52034
Loading
Personal Weather Stations






























Interactive Weather Map New forecast layout! Learn more

10-Day Weather Forecast

Advertisements
Track Severe Weather on mobile